Time;durP1;ratioP1;P1;durP2;ratioP2;P2;SDS_P1;SDS_P2;PMS_P1;PMS_P2;Temp;Humidity;BMP_temperature;BMP_pressure;BME280_temperature;BME280_humidity;BME280_pressure;Samples;Min_cycle;Max_cycle;Signal;HPM_P1;HPM_P2
2021/08/12 00:00:49;;;;;;;12.15;6.82;;;24.30;80.80;;;;;;4264191;27;20103;-68
2021/08/12 00:02:52;;;;;;;;;;;24.20;80.50;;;;;;4266125;27;20050;-68
2021/08/12 00:04:55;;;;;;;14.27;7.07;;;24.20;80.70;;;;;;4265530;27;20312;-70
2021/08/12 00:06:58;;;;;;;17.25;8.30;;;24.20;81.40;;;;;;4265336;27;20530;-67
2021/08/12 00:09:01;;;;;;;14.20;8.15;;;24.00;82.50;;;;;;4265110;27;20050;-68
2021/08/12 00:11:04;;;;;;;15.00;8.25;;;24.00;84.10;;;;;;4265249;27;20598;-68
2021/08/12 00:13:07;;;;;;;11.40;7.88;;;23.90;83.90;;;;;;4265393;27;20110;-69
2021/08/12 00:15:11;;;;;;;16.65;9.40;;;23.90;83.50;;;;;;4265337;27;20050;-69
2021/08/12 00:17:15;;;;;;;15.57;9.18;;;23.80;84.40;;;;;;4247192;27;20081;-68
2021/08/12 00:19:19;;;;;;;16.42;8.65;;;23.80;85.40;;;;;;4265590;27;20107;-69
2021/08/12 00:21:22;;;;;;;23.95;9.52;;;23.80;85.70;;;;;;4264978;27;20050;-67
2021/08/12 00:23:27;;;;;;;17.08;8.63;;;23.80;85.80;;;;;;4265400;27;20110;-68
2021/08/12 00:25:30;;;;;;;21.42;8.63;;;23.70;85.30;;;;;;4269492;27;20079;-69
2021/08/12 00:27:33;;;;;;;16.58;8.60;;;23.80;84.60;;;;;;4268295;27;20054;-69
2021/08/12 00:29:36;;;;;;;17.52;8.70;;;23.70;84.50;;;;;;4266672;27;20084;-67
2021/08/12 00:31:39;;;;;;;20.63;8.63;;;23.80;85.40;;;;;;4266970;27;20059;-70
2021/08/12 00:33:43;;;;;;;17.88;8.35;;;23.80;84.50;;;;;;4268057;27;20051;-70
2021/08/12 00:35:46;;;;;;;10.13;7.18;;;23.80;84.60;;;;;;4267410;27;20042;-68
2021/08/12 00:37:49;;;;;;;9.57;6.88;;;23.80;84.50;;;;;;4266312;27;20050;-67
2021/08/12 00:39:52;;;;;;;12.73;7.60;;;23.70;84.40;;;;;;4265648;27;20115;-70
2021/08/12 00:41:55;;;;;;;14.63;7.25;;;23.70;85.60;;;;;;4265135;27;20050;-67
2021/08/12 00:43:59;;;;;;;10.73;7.13;;;23.60;86.10;;;;;;4264831;27;20456;-67
2021/08/12 00:46:02;;;;;;;17.10;7.65;;;23.50;86.40;;;;;;4264645;27;20407;-68
2021/08/12 00:48:05;;;;;;;15.45;7.15;;;23.50;86.50;;;;;;4264821;27;20043;-67
2021/08/12 00:50:11;;;;;;;14.85;7.22;;;23.40;86.20;;;;;;4246707;27;20493;-68
2021/08/12 00:52:15;;;;;;;13.80;6.97;;;23.30;86.70;;;;;;4264393;27;20047;-69
2021/08/12 00:54:19;;;;;;;9.68;6.88;;;23.40;86.30;;;;;;4264923;27;20560;-68
2021/08/12 00:56:21;;;;;;;19.13;7.40;;;23.30;86.30;;;;;;4264575;27;20596;-69
2021/08/12 00:58:25;;;;;;;10.85;6.78;;;23.30;86.70;;;;;;4264694;27;20143;-68
2021/08/12 01:00:28;;;;;;;10.63;6.93;;;23.30;87.30;;;;;;4264415;27;20486;-69
2021/08/12 01:02:31;;;;;;;13.38;6.60;;;23.30;86.20;;;;;;4257827;27;20092;-68
2021/08/12 01:04:34;;;;;;;12.98;6.90;;;23.30;86.00;;;;;;4247323;27;20047;-68
2021/08/12 01:06:48;;;;;;;14.73;7.53;;;23.30;86.10;;;;;;4247215;27;20043;-68
2021/08/12 01:08:58;;;;;;;11.25;6.65;;;23.30;86.50;;;;;;4249279;27;20062;-72
2021/08/12 01:11:09;;;;;;;11.52;6.72;;;23.20;86.60;;;;;;4264155;27;20042;-68
2021/08/12 01:13:24;;;;;;;10.75;6.22;;;23.20;86.70;;;;;;4264465;27;20058;-68
2021/08/12 01:15:34;;;;;;;12.43;6.65;;;23.20;86.90;;;;;;4264443;27;20050;-68
2021/08/12 01:17:43;;;;;;;10.75;6.28;;;23.20;86.50;;;;;;4246224;27;20601;-68
2021/08/12 01:20:27;;;;;;;11.45;7.45;;;23.20;86.20;;;;;;4264455;27;20452;-68
2021/08/12 01:22:35;;;;;;;11.93;6.53;;;23.20;86.60;;;;;;4178286;28;20053;-68
2021/08/12 01:24:42;;;;;;;9.50;6.80;;;23.20;87.70;;;;;;4233408;27;20050;-68
2021/08/12 01:26:48;;;;;;;9.90;5.88;;;23.10;87.90;;;;;;4264353;27;20070;-69
2021/08/12 01:28:52;;;;;;;7.97;6.03;;;23.10;87.20;;;;;;4264318;27;20075;-68
2021/08/12 01:31:09;;;;;;;9.00;6.07;;;23.10;86.80;;;;;;4263971;27;20095;-68
2021/08/12 01:33:25;;;;;;;12.93;6.57;;;23.00;87.90;;;;;;4264155;27;20055;-69
2021/08/12 01:35:31;;;;;;;13.15;6.70;;;23.00;87.30;;;;;;4264097;27;20058;-68
2021/08/12 01:37:37;;;;;;;9.35;5.82;;;22.80;88.40;;;;;;4264200;27;20058;-70
2021/08/12 01:39:41;;;;;;;9.60;6.35;;;22.80;89.20;;;;;;4245646;27;20054;-68
2021/08/12 01:41:46;;;;;;;10.93;5.53;;;22.80;88.80;;;;;;4263985;27;20062;-69
2021/08/12 01:43:49;;;;;;;9.70;5.60;;;22.70;89.50;;;;;;4263574;27;20051;-68
2021/08/12 01:45:53;;;;;;;12.95;5.32;;;22.70;88.80;;;;;;4263820;27;20437;-69
2021/08/12 01:47:57;;;;;;;9.85;5.45;;;22.70;89.20;;;;;;4245543;27;20450;-68
2021/08/12 01:50:03;;;;;;;8.65;5.20;;;22.60;89.40;;;;;;4263856;27;20490;-69
2021/08/12 01:52:08;;;;;;;11.90;5.22;;;22.60;89.80;;;;;;4263638;27;20059;-68
2021/08/12 01:54:12;;;;;;;11.18;5.20;;;22.60;89.50;;;;;;4263677;27;20483;-74
2021/08/12 01:56:16;;;;;;;9.05;4.90;;;22.40;90.20;;;;;;4264007;27;20054;-68
2021/08/12 01:58:23;;;;;;;9.70;4.97;;;22.40;90.00;;;;;;4263601;27;20059;-68
2021/08/12 02:00:29;;;;;;;16.00;5.63;;;22.40;90.20;;;;;;4263333;27;20095;-68
2021/08/12 02:02:35;;;;;;;10.80;5.05;;;22.50;90.00;;;;;;4263241;27;20047;-68
2021/08/12 02:04:40;;;;;;;9.10;5.35;;;22.50;89.80;;;;;;4263768;27;20039;-69
2021/08/12 02:06:44;;;;;;;10.55;5.47;;;22.50;90.10;;;;;;4264115;27;20050;-69
2021/08/12 02:08:48;;;;;;;9.48;4.90;;;22.40;90.20;;;;;;4263604;27;20475;-68
2021/08/12 02:10:52;;;;;;;8.93;5.18;;;22.30;90.40;;;;;;4263854;27;20782;-71
2021/08/12 02:12:54;;;;;;;13.18;5.18;;;22.30;90.40;;;;;;4245118;27;20478;-69
2021/08/12 02:14:57;;;;;;;8.65;5.40;;;22.20;90.50;;;;;;4263820;27;20532;-68
2021/08/12 02:17:00;;;;;;;10.90;5.10;;;22.30;90.40;;;;;;4266484;27;20058;-67
2021/08/12 02:19:05;;;;;;;9.10;4.78;;;22.20;90.90;;;;;;4266991;27;20047;-68
2021/08/12 02:21:12;;;;;;;11.18;5.07;;;22.20;90.30;;;;;;4267186;27;20050;-68
2021/08/12 02:23:22;;;;;;;7.85;4.63;;;22.20;90.50;;;;;;4263233;27;20058;-68
2021/08/12 02:25:31;;;;;;;9.43;5.20;;;22.10;90.70;;;;;;4263815;27;20043;-68
2021/08/12 02:27:38;;;;;;;8.20;5.07;;;22.20;90.70;;;;;;4263267;27;20080;-68
2021/08/12 02:29:41;;;;;;;10.48;5.40;;;22.20;90.50;;;;;;4263116;27;20042;-68
2021/08/12 02:31:46;;;;;;;18.95;5.40;;;22.20;90.30;;;;;;4263483;27;20107;-68
2021/08/12 02:33:50;;;;;;;;;;;22.10;90.90;;;;;;4263581;27;20475;-68
2021/08/12 02:35:53;;;;;;;11.10;5.60;;;22.10;91.20;;;;;;4263096;27;19919;-68
2021/08/12 02:37:57;;;;;;;14.15;5.60;;;22.20;90.90;;;;;;4263045;27;20487;-68
2021/08/12 02:40:01;;;;;;;13.05;5.40;;;22.20;90.50;;;;;;4263290;27;20050;-69
2021/08/12 02:42:08;;;;;;;13.48;5.28;;;22.20;90.70;;;;;;4264369;27;20062;-68
2021/08/12 02:44:11;;;;;;;7.22;5.43;;;22.20;90.50;;;;;;4264574;27;20519;-67
2021/08/12 02:46:17;;;;;;;9.48;5.40;;;22.20;90.70;;;;;;4263836;27;20055;-76
2021/08/12 02:48:22;;;;;;;12.88;5.22;;;22.20;90.50;;;;;;4245276;27;20055;-74
2021/08/12 02:50:25;;;;;;;12.55;5.88;;;22.20;90.30;;;;;;4263081;27;20050;-68
2021/08/12 02:52:28;;;;;;;7.97;5.70;;;22.10;91.00;;;;;;4262860;27;20078;-68
2021/08/12 02:54:31;;;;;;;10.88;5.40;;;22.00;91.10;;;;;;4262737;27;20115;-68
2021/08/12 02:56:36;;;;;;;14.13;5.50;;;22.10;90.80;;;;;;4263305;27;20034;-68
2021/08/12 02:58:41;;;;;;;7.63;5.00;;;22.00;91.00;;;;;;4262668;27;20111;-69
2021/08/12 03:00:44;;;;;;;9.13;5.38;;;22.10;90.80;;;;;;4262561;27;20476;-68
2021/08/12 03:02:50;;;;;;;9.30;4.97;;;22.10;90.80;;;;;;4253559;27;20459;-68
2021/08/12 03:04:54;;;;;;;16.88;5.68;;;22.00;91.10;;;;;;4227936;28;20047;-68
2021/08/12 03:06:59;;;;;;;8.48;5.43;;;21.80;92.00;;;;;;4245800;28;20247;-68
2021/08/12 03:09:02;;;;;;;;;;;21.70;92.00;;;;;;4232066;27;20078;-68
2021/08/12 03:11:07;;;;;;;16.70;5.45;;;21.70;91.90;;;;;;4264263;27;20343;-68
2021/08/12 03:13:11;;;;;;;14.80;5.55;;;21.60;92.70;;;;;;4263343;27;20487;-68
2021/08/12 03:15:16;;;;;;;12.60;5.32;;;21.50;92.50;;;;;;4246779;27;20059;-68
2021/08/12 03:17:21;;;;;;;13.07;5.80;;;21.50;92.80;;;;;;4244634;28;20051;-68
2021/08/12 03:19:24;;;;;;;11.70;5.67;;;21.50;92.90;;;;;;4244256;28;20047;-68
2021/08/12 03:21:27;;;;;;;10.65;6.10;;;21.40;93.10;;;;;;4244421;28;20467;-68
2021/08/12 03:23:30;;;;;;;11.68;5.55;;;21.40;93.10;;;;;;4245202;28;20461;-68
2021/08/12 03:25:33;;;;;;;9.50;5.18;;;21.50;92.70;;;;;;4245235;28;20455;-69
2021/08/12 03:27:36;;;;;;;11.10;5.72;;;21.60;92.50;;;;;;4245307;28;20051;-68
2021/08/12 03:29:39;;;;;;;8.20;5.75;;;21.60;92.10;;;;;;4245603;28;20073;-69
2021/08/12 03:31:43;;;;;;;14.15;5.90;;;21.60;92.30;;;;;;4245370;28;20441;-68
2021/08/12 03:33:46;;;;;;;12.63;5.60;;;21.60;93.10;;;;;;4245418;28;20043;-68
2021/08/12 03:35:49;;;;;;;11.90;5.63;;;21.50;92.90;;;;;;4247417;27;20054;-68
2021/08/12 03:37:52;;;;;;;6.70;5.15;;;21.50;92.10;;;;;;4248794;27;20051;-68
2021/08/12 03:39:55;;;;;;;8.55;5.70;;;21.50;92.70;;;;;;4248671;27;20044;-68
2021/08/12 03:41:58;;;;;;;16.17;5.57;;;21.50;92.80;;;;;;4248690;27;20052;-70
2021/08/12 03:44:02;;;;;;;13.77;5.63;;;21.40;93.10;;;;;;4248906;27;20047;-68
2021/08/12 03:46:04;;;;;;;10.52;5.47;;;21.20;93.40;;;;;;4248702;27;20487;-68
2021/08/12 03:48:09;;;;;;;14.15;6.68;;;21.00;94.40;;;;;;4248766;27;20088;-68
2021/08/12 03:50:12;;;;;;;15.77;6.35;;;21.00;94.60;;;;;;4230488;28;20549;-68
2021/08/12 03:52:15;;;;;;;12.52;5.85;;;21.00;94.60;;;;;;4248427;27;20119;-69
2021/08/12 03:54:18;;;;;;;12.90;5.55;;;20.90;94.70;;;;;;4248567;27;20120;-68
2021/08/12 03:56:21;;;;;;;13.38;6.10;;;20.70;95.10;;;;;;4248518;27;20115;-68
2021/08/12 03:58:23;;;;;;;12.18;5.85;;;20.70;95.20;;;;;;4248646;27;20116;-69
2021/08/12 04:00:27;;;;;;;10.13;6.22;;;20.80;95.00;;;;;;4248672;27;20580;-68
2021/08/12 04:02:30;;;;;;;11.90;6.07;;;20.80;95.30;;;;;;4254582;27;20580;-69
2021/08/12 04:04:34;;;;;;;12.18;7.03;;;20.80;95.00;;;;;;4265677;27;20100;-68
2021/08/12 04:06:37;;;;;;;15.68;6.07;;;20.70;95.20;;;;;;4265658;27;20410;-68
2021/08/12 04:08:40;;;;;;;11.20;6.18;;;20.80;95.00;;;;;;4265216;27;20476;-69
2021/08/12 04:10:43;;;;;;;13.70;6.82;;;20.80;94.80;;;;;;4265526;27;20054;-68
2021/08/12 04:12:46;;;;;;;13.23;6.05;;;20.90;95.10;;;;;;4265402;27;20055;-68
2021/08/12 04:14:50;;;;;;;13.77;5.88;;;20.80;95.10;;;;;;4265195;27;20047;-68
2021/08/12 04:16:53;;;;;;;8.52;6.22;;;20.70;95.30;;;;;;4265287;27;20046;-68
2021/08/12 04:18:56;;;;;;;15.50;6.75;;;20.80;95.00;;;;;;4265225;27;20091;-68
2021/08/12 04:21:00;;;;;;;11.30;6.10;;;20.70;95.20;;;;;;4265180;27;20069;-68
2021/08/12 04:23:03;;;;;;;17.88;6.30;;;20.60;95.40;;;;;;4265260;27;20051;-68
2021/08/12 04:25:06;;;;;;;14.77;6.32;;;20.70;95.50;;;;;;4265288;27;20474;-68
2021/08/12 04:27:10;;;;;;;8.10;5.97;;;20.70;95.20;;;;;;4265264;27;20072;-68
2021/08/12 04:29:13;;;;;;;15.07;6.30;;;20.70;95.50;;;;;;4264999;27;20083;-68
2021/08/12 04:31:16;;;;;;;12.77;5.97;;;20.70;95.40;;;;;;4264776;27;20428;-68
2021/08/12 04:33:19;;;;;;;9.05;6.57;;;20.80;94.80;;;;;;4265332;27;20107;-67
2021/08/12 04:35:22;;;;;;;10.90;5.90;;;20.90;94.80;;;;;;4265159;27;20042;-68
2021/08/12 04:37:35;;;;;;;15.68;5.82;;;21.00;94.40;;;;;;4265071;27;20038;-68
2021/08/12 04:39:38;;;;;;;10.10;6.30;;;21.00;94.60;;;;;;4265485;27;20111;-74
2021/08/12 04:41:40;;;;;;;15.52;6.10;;;21.10;94.00;;;;;;4264956;27;20054;-68
2021/08/12 04:43:43;;;;;;;14.63;6.50;;;21.10;94.20;;;;;;4265087;27;20046;-68
2021/08/12 04:45:46;;;;;;;14.50;6.20;;;21.10;94.50;;;;;;4264953;27;20043;-69
2021/08/12 04:47:49;;;;;;;17.45;7.38;;;21.10;94.20;;;;;;4266130;27;20096;-68
2021/08/12 04:49:52;;;;;;;11.43;5.90;;;21.20;94.10;;;;;;4265284;27;20051;-74
2021/08/12 04:51:55;;;;;;;14.80;5.72;;;21.10;94.10;;;;;;4265864;27;20038;-77
2021/08/12 04:54:00;;;;;;;11.32;6.22;;;21.20;93.80;;;;;;4265188;27;20087;-68
2021/08/12 04:56:03;;;;;;;16.15;6.80;;;21.20;93.90;;;;;;4265134;27;20043;-69
2021/08/12 04:58:06;;;;;;;10.32;6.28;;;21.10;94.20;;;;;;4265011;27;20076;-68
2021/08/12 05:00:10;;;;;;;12.50;6.53;;;21.00;94.50;;;;;;4264635;27;20088;-68
2021/08/12 05:02:13;;;;;;;10.00;6.05;;;21.00;94.40;;;;;;4260611;27;20051;-68
2021/08/12 05:04:16;;;;;;;10.57;6.43;;;21.10;94.30;;;;;;4247531;27;20124;-68
2021/08/12 05:06:19;;;;;;;11.80;5.97;;;21.10;94.10;;;;;;4247655;27;20139;-68
2021/08/12 05:08:24;;;;;;;13.23;6.20;;;21.10;94.10;;;;;;4247368;27;20496;-67
2021/08/12 05:10:28;;;;;;;18.15;6.57;;;21.10;94.40;;;;;;4263272;27;20468;-68
2021/08/12 05:12:31;;;;;;;17.27;6.53;;;21.10;94.10;;;;;;4264564;27;20050;-68
2021/08/12 05:14:35;;;;;;;19.23;6.90;;;21.20;93.80;;;;;;4246032;27;20472;-70
2021/08/12 05:16:38;;;;;;;18.17;6.90;;;21.20;93.90;;;;;;4264290;27;20047;-68
2021/08/12 05:18:41;;;;;;;18.02;7.30;;;21.20;94.00;;;;;;4264208;27;20055;-68
2021/08/12 05:20:44;;;;;;;20.92;7.32;;;21.20;93.80;;;;;;4264135;27;20054;-67
2021/08/12 05:22:47;;;;;;;19.92;7.25;;;21.20;94.00;;;;;;4264005;27;20111;-68
2021/08/12 05:24:51;;;;;;;13.48;7.10;;;21.20;93.60;;;;;;4264227;27;20051;-68
2021/08/12 05:26:55;;;;;;;19.05;7.45;;;21.20;93.90;;;;;;4264376;27;20043;-67
2021/08/12 05:28:58;;;;;;;18.35;7.70;;;21.20;94.10;;;;;;4263990;27;20088;-68
2021/08/12 05:31:02;;;;;;;15.55;6.78;;;21.20;93.80;;;;;;4263870;27;20076;-68
2021/08/12 05:33:05;;;;;;;13.80;6.57;;;21.10;94.00;;;;;;4264221;27;20059;-67
2021/08/12 05:35:09;;;;;;;25.23;8.10;;;21.10;94.10;;;;;;4264344;27;20474;-68
2021/08/12 05:37:12;;;;;;;29.08;8.00;;;21.10;94.10;;;;;;4263824;27;20051;-68
2021/08/12 05:39:15;;;;;;;22.52;7.82;;;21.10;94.20;;;;;;4263894;27;20047;-67
2021/08/12 05:41:18;;;;;;;28.48;7.82;;;21.00;94.10;;;;;;4263966;27;20058;-69
2021/08/12 05:43:22;;;;;;;42.47;9.68;;;21.10;94.00;;;;;;4263713;27;20174;-68
2021/08/12 05:45:25;;;;;;;45.17;9.18;;;21.10;94.30;;;;;;4263909;27;20051;-68
2021/08/12 05:47:28;;;;;;;39.63;8.90;;;21.10;94.20;;;;;;4263753;27;20059;-68
2021/08/12 05:49:31;;;;;;;45.60;9.50;;;21.10;94.20;;;;;;4263975;27;20532;-68
2021/08/12 05:51:34;;;;;;;41.10;9.70;;;21.10;94.30;;;;;;4264018;27;20051;-68
2021/08/12 05:53:37;;;;;;;42.05;9.20;;;21.00;94.50;;;;;;4263614;27;20499;-68
2021/08/12 05:55:40;;;;;;;31.15;8.52;;;21.10;94.30;;;;;;4263873;27;20046;-68
2021/08/12 05:57:43;;;;;;;35.03;8.70;;;21.20;94.60;;;;;;4263025;27;20051;-67
2021/08/12 05:59:49;;;;;;;17.92;7.40;;;21.10;94.80;;;;;;4263793;27;20451;-67
2021/08/12 06:01:52;;;;;;;30.10;8.38;;;21.10;95.10;;;;;;4263655;27;20531;-69
2021/08/12 06:03:55;;;;;;;21.10;8.15;;;21.00;95.00;;;;;;4263603;27;20058;-66
2021/08/12 06:05:58;;;;;;;11.95;7.30;;;21.00;94.70;;;;;;4263319;27;20506;-68
2021/08/12 06:08:02;;;;;;;25.98;7.78;;;21.00;94.90;;;;;;4263612;27;20138;-67
2021/08/12 06:10:06;;;;;;;17.08;6.82;;;20.90;95.10;;;;;;4263153;27;20058;-68
2021/08/12 06:12:09;;;;;;;17.15;6.90;;;20.90;94.90;;;;;;4263306;27;20055;-68
2021/08/12 06:14:12;;;;;;;14.20;6.63;;;20.90;95.10;;;;;;4263300;27;20590;-68
2021/08/12 06:16:17;;;;;;;15.15;7.07;;;21.10;94.70;;;;;;4263568;27;20713;-68
2021/08/12 06:18:22;;;;;;;14.40;7.38;;;21.10;94.60;;;;;;4263276;27;20047;-68
2021/08/12 06:20:24;;;;;;;;;;;21.00;95.00;;;;;;4263761;27;20108;-68
2021/08/12 06:22:27;;;;;;;14.02;6.40;;;21.20;94.50;;;;;;4263436;27;19948;-68
2021/08/12 06:24:30;;;;;;;14.90;7.25;;;21.30;94.10;;;;;;4263014;27;20592;-68
2021/08/12 06:26:33;;;;;;;18.70;6.57;;;21.30;94.00;;;;;;4263191;27;20046;-68
2021/08/12 06:28:36;;;;;;;11.73;6.40;;;21.30;94.10;;;;;;4263357;27;20112;-68
2021/08/12 06:30:39;;;;;;;15.93;7.30;;;21.30;93.90;;;;;;4262693;27;20054;-68
2021/08/12 06:32:43;;;;;;;12.95;6.05;;;21.30;94.20;;;;;;4262828;27;20104;-68
2021/08/12 06:34:46;;;;;;;17.17;6.85;;;21.40;93.90;;;;;;4262973;27;20444;-68
2021/08/12 06:36:49;;;;;;;16.33;6.90;;;21.50;93.80;;;;;;4262957;27;20047;-68
2021/08/12 06:38:53;;;;;;;16.48;6.43;;;21.50;93.50;;;;;;4263175;27;20536;-68
2021/08/12 06:40:56;;;;;;;16.55;7.15;;;21.60;93.30;;;;;;4263255;27;20074;-68
2021/08/12 06:42:59;;;;;;;21.10;6.50;;;21.60;93.60;;;;;;4262807;27;20066;-68
2021/08/12 06:45:03;;;;;;;16.45;7.30;;;21.70;93.50;;;;;;4262747;27;20055;-68
2021/08/12 06:47:06;;;;;;;19.20;7.10;;;21.80;93.30;;;;;;4263038;27;20410;-68
2021/08/12 06:49:10;;;;;;;33.63;8.82;;;21.80;93.10;;;;;;4263087;27;20103;-68
2021/08/12 06:51:13;;;;;;;17.05;6.75;;;21.90;92.90;;;;;;4262803;27;20042;-68
2021/08/12 06:53:16;;;;;;;16.65;6.53;;;22.00;92.90;;;;;;4262673;27;20050;-69
2021/08/12 06:55:19;;;;;;;11.85;5.80;;;22.00;92.80;;;;;;4262948;27;20107;-68
2021/08/12 06:57:22;;;;;;;33.78;7.93;;;22.10;92.80;;;;;;4262796;27;20051;-68
2021/08/12 06:59:25;;;;;;;25.92;8.57;;;22.10;92.50;;;;;;4262901;27;20072;-68
2021/08/12 07:01:28;;;;;;;25.55;8.68;;;22.10;92.70;;;;;;4262889;27;20411;-68
2021/08/12 07:03:31;;;;;;;21.38;7.40;;;22.00;92.70;;;;;;4247674;27;20108;-67
2021/08/12 07:05:35;;;;;;;19.95;6.93;;;22.00;92.90;;;;;;4245682;28;20051;-69
2021/08/12 07:07:38;;;;;;;25.33;7.90;;;21.90;93.20;;;;;;4245989;28;20059;-68
2021/08/12 07:09:42;;;;;;;18.63;7.32;;;21.90;93.10;;;;;;4256203;27;20039;-67
2021/08/12 07:11:47;;;;;;;15.40;5.87;;;22.00;92.90;;;;;;4266686;27;20055;-68
2021/08/12 07:13:50;;;;;;;17.55;6.45;;;22.00;92.90;;;;;;4266143;27;20467;-69
2021/08/12 07:15:53;;;;;;;15.63;6.40;;;22.00;92.90;;;;;;4266336;27;20054;-70
2021/08/12 07:17:56;;;;;;;13.65;6.35;;;22.10;92.90;;;;;;4266191;27;20103;-68
2021/08/12 07:19:59;;;;;;;11.27;5.60;;;22.20;92.80;;;;;;4266351;27;20058;-69
2021/08/12 07:22:04;;;;;;;12.73;5.70;;;22.30;92.50;;;;;;4266432;27;20063;-68
2021/08/12 07:24:07;;;;;;;14.02;6.10;;;22.20;92.70;;;;;;4266284;27;20054;-68
2021/08/12 07:26:12;;;;;;;14.80;6.13;;;22.40;92.50;;;;;;4266361;27;20047;-69
2021/08/12 07:28:15;;;;;;;14.60;6.18;;;22.50;92.40;;;;;;4266355;27;20058;-68
2021/08/12 07:30:18;;;;;;;15.52;5.80;;;22.60;92.30;;;;;;4266173;27;20055;-68
2021/08/12 07:32:21;;;;;;;16.33;6.50;;;22.60;92.20;;;;;;4266131;27;20046;-68
2021/08/12 07:34:24;;;;;;;21.60;7.55;;;22.80;92.10;;;;;;4265759;27;20567;-68
2021/08/12 07:36:27;;;;;;;26.92;7.80;;;22.90;91.90;;;;;;4247656;27;20055;-68
2021/08/12 07:38:32;;;;;;;23.15;7.15;;;22.90;92.00;;;;;;4265875;27;20107;-68
2021/08/12 07:40:35;;;;;;;17.92;6.97;;;22.90;92.00;;;;;;4265875;27;20499;-68
2021/08/12 07:42:38;;;;;;;18.38;6.13;;;23.00;92.00;;;;;;4266020;27;20054;-69
2021/08/12 07:44:41;;;;;;;21.25;6.85;;;23.10;92.10;;;;;;4265895;27;20111;-68
2021/08/12 07:46:44;;;;;;;15.88;7.22;;;23.30;91.90;;;;;;4265913;27;20464;-69
2021/08/12 07:48:47;;;;;;;15.82;6.60;;;23.30;91.70;;;;;;4265923;27;20103;-69
2021/08/12 07:50:50;;;;;;;18.20;6.85;;;23.40;91.60;;;;;;4265953;27;20054;-68
2021/08/12 07:52:54;;;;;;;24.75;7.47;;;23.30;91.80;;;;;;4265604;27;20055;-67
2021/08/12 07:54:58;;;;;;;36.50;7.60;;;23.40;91.80;;;;;;4265624;27;20051;-67
2021/08/12 07:57:01;;;;;;;21.90;7.57;;;23.50;91.70;;;;;;4265668;27;20103;-68
2021/08/12 07:59:04;;;;;;;32.83;7.88;;;23.50;91.40;;;;;;4247117;27;20055;-68
2021/08/12 08:01:07;;;;;;;18.98;6.72;;;23.50;91.60;;;;;;4265818;27;20074;-69
2021/08/12 08:03:10;;;;;;;17.17;6.18;;;23.60;91.60;;;;;;4265338;27;20574;-68
2021/08/12 08:05:14;;;;;;;21.20;7.32;;;23.80;91.40;;;;;;4265556;27;20182;-68
2021/08/12 08:07:17;;;;;;;18.35;6.95;;;23.90;91.20;;;;;;4265368;27;20099;-68
2021/08/12 08:09:20;;;;;;;18.98;6.72;;;23.80;90.90;;;;;;4265322;27;20497;-69
2021/08/12 08:11:25;;;;;;;20.35;6.70;;;23.80;90.90;;;;;;4265472;27;20047;-68
2021/08/12 08:13:28;;;;;;;25.30;6.22;;;23.90;91.10;;;;;;4265711;27;20410;-68
2021/08/12 08:15:31;;;;;;;14.13;5.80;;;23.80;91.00;;;;;;4265395;27;20043;-68
2021/08/12 08:17:36;;;;;;;;;;;23.80;91.20;;;;;;4266116;27;20062;-68
2021/08/12 08:19:38;;;;;;;9.50;5.50;;;23.80;91.00;;;;;;4265452;27;20414;-68
2021/08/12 08:21:41;;;;;;;17.30;6.28;;;23.90;91.00;;;;;;4246567;27;20055;-68
2021/08/12 08:23:44;;;;;;;19.95;7.13;;;24.10;91.00;;;;;;4265279;27;20050;-68
2021/08/12 08:25:47;;;;;;;15.15;6.35;;;24.20;90.80;;;;;;4267108;27;20043;-70
2021/08/12 08:27:51;;;;;;;20.45;6.10;;;24.20;90.80;;;;;;4268528;27;20104;-69
2021/08/12 08:30:00;;;;;;;17.65;5.72;;;24.30;91.00;;;;;;4265821;27;20046;-70
2021/08/12 08:32:04;;;;;;;11.75;5.35;;;24.30;90.80;;;;;;4265311;27;20063;-70
2021/08/12 08:34:07;;;;;;;16.05;5.43;;;24.50;90.80;;;;;;4265259;27;20050;-70
2021/08/12 08:36:10;;;;;;;18.38;6.20;;;24.40;90.60;;;;;;4265092;27;20058;-69
2021/08/12 08:38:13;;;;;;;14.18;6.22;;;24.60;90.50;;;;;;4264881;27;20522;-70
2021/08/12 08:40:16;;;;;;;14.70;5.32;;;24.70;90.50;;;;;;4264935;27;20548;-69
2021/08/12 08:42:20;;;;;;;11.38;4.88;;;24.80;90.20;;;;;;4264895;27;20107;-71
2021/08/12 08:44:25;;;;;;;17.25;5.72;;;25.00;90.30;;;;;;4265150;27;20506;-70
2021/08/12 08:46:28;;;;;;;;;;;24.90;89.60;;;;;;4266317;27;20054;-70
2021/08/12 08:48:33;;;;;;;17.33;5.55;;;25.00;89.60;;;;;;4265245;27;19923;-68
2021/08/12 08:50:37;;;;;;;14.73;5.10;;;25.10;90.30;;;;;;4264737;27;20050;-68
2021/08/12 08:52:40;;;;;;;25.00;5.60;;;25.20;90.30;;;;;;4264555;27;20130;-67
2021/08/12 08:54:44;;;;;;;13.98;5.47;;;25.30;89.80;;;;;;4264543;27;20043;-68
2021/08/12 08:56:47;;;;;;;15.35;4.95;;;25.30;90.00;;;;;;4264615;27;20084;-68
2021/08/12 08:58:50;;;;;;;16.48;6.00;;;25.40;89.20;;;;;;4264622;27;20050;-68
2021/08/12 09:00:55;;;;;;;18.05;5.70;;;25.40;89.00;;;;;;4264585;27;20042;-68
2021/08/12 09:02:58;;;;;;;20.58;5.20;;;25.40;88.90;;;;;;4264648;27;20139;-70
2021/08/12 09:05:02;;;;;;;20.42;5.88;;;25.50;88.90;;;;;;4264831;27;20058;-71
2021/08/12 09:07:05;;;;;;;20.65;5.88;;;25.60;88.90;;;;;;4265322;27;20054;-71
2021/08/12 09:09:10;;;;;;;10.32;4.85;;;25.70;88.70;;;;;;4266322;27;20103;-69
2021/08/12 09:11:13;;;;;;;16.92;5.35;;;25.80;88.50;;;;;;4265086;27;20050;-67
2021/08/12 09:13:16;;;;;;;17.02;6.03;;;25.80;87.90;;;;;;4263752;27;20308;-67
2021/08/12 09:15:23;;;;;;;15.70;5.20;;;25.80;87.50;;;;;;4263076;27;20051;-67
2021/08/12 09:17:29;;;;;;;29.75;6.15;;;25.90;88.10;;;;;;4274201;27;20058;-76
2021/08/12 09:19:32;;;;;;;14.85;5.80;;;25.90;87.40;;;;;;4265742;27;20339;-75
2021/08/12 09:21:35;;;;;;;20.42;5.57;;;26.00;87.70;;;;;;4256570;27;20047;-68
2021/08/12 09:23:40;;;;;;;12.88;4.95;;;26.10;88.30;;;;;;4238467;28;20044;-67
2021/08/12 09:25:47;;;;;;;23.20;4.93;;;26.20;88.10;;;;;;4256342;27;20051;-67
2021/08/12 09:28:10;;;;;;;16.77;5.35;;;26.20;87.70;;;;;;4256705;27;20055;-68
2021/08/12 09:30:14;;;;;;;16.35;5.45;;;26.40;87.90;;;;;;4256459;27;20043;-67
2021/08/12 09:32:19;;;;;;;18.80;5.72;;;26.40;87.00;;;;;;4250582;27;20616;-68
2021/08/12 09:34:39;;;;;;;21.08;5.38;;;26.50;87.30;;;;;;4278079;27;20237;-67
2021/08/12 09:36:42;;;;;;;19.30;5.78;;;26.40;86.20;;;;;;4278690;27;20239;-68
2021/08/12 09:38:44;;;;;;;18.50;6.55;;;26.40;86.30;;;;;;4273740;27;20274;-67
2021/08/12 09:41:01;;;;;;;12.55;5.32;;;26.50;85.70;;;;;;4287896;27;20094;-68
2021/08/12 09:43:05;;;;;;;15.35;5.85;;;26.60;86.30;;;;;;4290463;27;20042;-68
2021/08/12 09:45:22;;;;;;;14.05;5.35;;;26.70;86.10;;;;;;4290638;27;20054;-68
2021/08/12 09:47:28;;;;;;;19.65;5.85;;;26.80;85.80;;;;;;4290795;27;20050;-68
2021/08/12 09:49:45;;;;;;;20.95;9.27;;;26.90;85.40;;;;;;4290398;27;20054;-67
2021/08/12 09:51:50;;;;;;;17.40;6.28;;;27.00;85.00;;;;;;4285928;27;20046;-71
2021/08/12 09:54:01;;;;;;;20.70;5.85;;;26.90;85.10;;;;;;4256313;27;20099;-67
2021/08/12 09:56:09;;;;;;;19.20;5.70;;;27.00;84.30;;;;;;4255680;27;20104;-68
2021/08/12 09:58:13;;;;;;;18.33;6.00;;;27.10;85.00;;;;;;4256040;27;20047;-68
2021/08/12 10:00:35;;;;;;;16.30;5.60;;;27.30;84.70;;;;;;4256183;27;20073;-67
2021/08/12 10:02:38;;;;;;;18.98;6.00;;;27.20;82.30;;;;;;4264355;27;20362;-69
2021/08/12 10:04:43;;;;;;;13.27;5.32;;;27.30;84.40;;;;;;4254590;27;20403;-68
2021/08/12 10:06:46;;;;;;;22.48;5.28;;;27.40;84.30;;;;;;4262812;27;20042;-70
2021/08/12 10:08:49;;;;;;;21.73;5.47;;;27.50;84.20;;;;;;4271377;27;20104;-71
2021/08/12 10:10:53;;;;;;;18.85;5.72;;;27.60;82.30;;;;;;4271994;27;20046;-72
2021/08/12 10:12:57;;;;;;;18.95;6.07;;;27.60;80.80;;;;;;4270450;27;20055;-68
2021/08/12 10:15:00;;;;;;;22.95;6.20;;;27.60;83.00;;;;;;4269644;27;20051;-71
2021/08/12 10:17:08;;;;;;;16.50;5.63;;;27.80;80.90;;;;;;4258467;27;20179;-69
2021/08/12 10:19:21;;;;;;;22.60;6.30;;;27.80;81.10;;;;;;4271846;27;20047;-68
2021/08/12 10:21:27;;;;;;;19.33;6.13;;;27.70;80.40;;;;;;4272614;27;20197;-70
2021/08/12 10:23:31;;;;;;;18.30;5.50;;;27.70;79.70;;;;;;4269857;27;20437;-70
2021/08/12 10:25:35;;;;;;;14.63;5.13;;;27.70;80.80;;;;;;4266434;27;20538;-68
2021/08/12 10:27:42;;;;;;;12.75;6.47;;;27.70;79.10;;;;;;4244108;27;20059;-70
2021/08/12 10:29:47;;;;;;;9.15;5.65;;;27.70;79.10;;;;;;4262294;27;20043;-77
2021/08/12 10:31:54;;;;;;;21.50;5.93;;;27.70;78.90;;;;;;4263722;27;20042;-75
2021/08/12 10:33:57;;;;;;;18.38;6.00;;;27.80;78.80;;;;;;4263485;27;20047;-70
2021/08/12 10:36:01;;;;;;;17.30;5.85;;;27.80;79.30;;;;;;4269507;27;20400;-70
2021/08/12 10:38:05;;;;;;;13.77;5.50;;;27.80;79.70;;;;;;4269273;27;20471;-70
2021/08/12 10:40:12;;;;;;;17.20;5.82;;;27.90;79.60;;;;;;4265560;27;20058;-69
2021/08/12 10:42:17;;;;;;;20.88;6.10;;;28.00;80.30;;;;;;4266239;27;20047;-70